Time,TemperatureF,DewpointF,PressureIn,WindDirection,WindDirectionDegrees,WindSpeedMPH,WindSpeedGustMPH,Humidity,HourlyPrecipIn,Conditions,Clouds,dailyrainin,SoftwareType,DateUTC
2013-04-10 00:00:00,44.4,26.5,29.94,WNW,292,2.7,2.7,49,0.00,,---,0.00,VWS V14.01,2013-04-10 07:00:00,
2013-04-10 00:04:00,49.1,29.2,30.15,South,180,2.5,2.5,46,0.00,,---,0.00,VWS V14.01,2013-04-10 07:04:00,
2013-04-10 00:09:00,48.7,29.4,30.15,South,180,2.5,2.5,47,0.00,,---,0.00,VWS V14.01,2013-04-10 07:09:00,
2013-04-10 00:14:00,48.6,29.8,30.15,South,180,2.5,2.5,48,0.00,,---,0.00,VWS V14.01,2013-04-10 07:14:00,
2013-04-10 00:19:00,48.4,29.1,30.15,South,180,2.5,2.5,47,0.00,,---,0.00,VWS V14.01,2013-04-10 07:19:00,
2013-04-10 00:24:00,48.4,29.6,30.18,South,180,2.5,2.5,48,0.00,,---,0.00,VWS V14.01,2013-04-10 07:24:00,
2013-04-10 00:29:00,48.2,29.5,30.18,South,180,2.5,2.5,48,0.00,,---,0.00,VWS V14.01,2013-04-10 07:29:00,
2013-04-10 00:34:00,48.0,29.3,30.18,South,180,2.5,2.5,48,0.00,,---,0.00,VWS V14.01,2013-04-10 07:34:00,
2013-04-10 00:39:00,48.0,29.3,30.18,South,180,2.5,2.5,48,0.00,,---,0.00,VWS V14.01,2013-04-10 07:39:00,
2013-04-10 00:44:00,47.8,29.1,30.18,South,180,2.5,2.5,48,0.00,,---,0.00,VWS V14.01,2013-04-10 07:44:00,
2013-04-10 00:50:00,47.8,29.1,30.18,South,180,2.5,2.5,48,0.00,,---,0.00,VWS V14.01,2013-04-10 07:50:00,
2013-04-10 00:55:00,47.7,29.5,30.18,South,180,2.5,2.5,49,0.00,,---,0.00,VWS V14.01,2013-04-10 07:55:00,
2013-04-10 01:00:00,47.5,29.3,30.18,South,180,2.5,2.5,49,0.00,,---,0.00,VWS V14.01,2013-04-10 08:00:00,
2013-04-10 01:05:00,47.3,29.1,30.18,South,180,2.5,2.5,49,0.00,,---,0.00,VWS V14.01,2013-04-10 08:05:00,
2013-04-10 01:10:00,47.3,29.1,30.15,South,180,2.5,2.5,49,0.00,,---,0.00,VWS V14.01,2013-04-10 08:10:00,
2013-04-10 01:15:00,47.3,29.1,30.15,South,180,2.5,2.5,49,0.00,,---,0.00,VWS V14.01,2013-04-10 08:15:00,
2013-04-10 01:20:00,47.3,29.1,30.15,South,180,2.5,2.5,49,0.00,,---,0.00,VWS V14.01,2013-04-10 08:20:00,
2013-04-10 01:25:00,47.3,29.1,30.15,South,180,2.5,2.5,49,0.00,,---,0.00,VWS V14.01,2013-04-10 08:25:00,
2013-04-10 01:30:00,47.3,29.1,30.15,South,180,2.5,2.5,49,0.00,,---,0.00,VWS V14.01,2013-04-10 08:30:00,
2013-04-10 01:35:00,47.3,29.1,30.15,South,180,2.5,2.5,49,0.00,,---,0.00,VWS V14.01,2013-04-10 08:35:00,
2013-04-10 01:40:00,47.3,29.6,30.15,South,180,2.5,2.5,50,0.00,,---,0.00,VWS V14.01,2013-04-10 08:40:00,
2013-04-10 01:45:00,47.3,29.6,30.15,South,180,2.5,2.5,50,0.00,,---,0.00,VWS V14.01,2013-04-10 08:45:00,
2013-04-10 01:50:00,47.3,29.6,30.15,South,180,2.5,2.5,50,0.00,,---,0.00,VWS V14.01,2013-04-10 08:50:00,
2013-04-10 01:55:00,47.3,29.6,30.12,South,180,2.5,2.5,50,0.00,,---,0.00,VWS V14.01,2013-04-10 08:55:00,
2013-04-10 02:00:00,47.1,29.5,30.12,South,180,2.5,2.5,50,0.00,,---,0.00,VWS V14.01,2013-04-10 09:00:00,
2013-04-10 02:06:00,47.1,29.5,30.12,South,180,2.5,2.5,50,0.00,,---,0.00,VWS V14.01,2013-04-10 09:06:00,
2013-04-10 02:11:00,46.9,29.3,30.09,South,180,2.5,2.5,50,0.00,,---,0.00,VWS V14.01,2013-04-10 09:11:00,
2013-04-10 02:16:00,46.9,30.2,30.09,South,180,2.5,2.5,52,0.00,,---,0.00,VWS V14.01,2013-04-10 09:16:00,
2013-04-10 02:21:00,46.8,30.1,30.09,South,180,2.5,2.5,52,0.00,,---,0.00,VWS V14.01,2013-04-10 09:21:00,
2013-04-10 02:26:00,46.8,29.6,30.12,South,180,2.5,2.5,51,0.00,,---,0.00,VWS V14.01,2013-04-10 09:26:00,
2013-04-10 02:31:00,46.6,29.4,30.12,South,180,2.5,2.5,51,0.00,,---,0.00,VWS V14.01,2013-04-10 09:31:00,
2013-04-10 02:36:00,46.4,29.3,30.12,South,180,2.5,2.5,51,0.00,,---,0.00,VWS V14.01,2013-04-10 09:36:00,
2013-04-10 02:41:00,46.4,29.8,30.12,South,180,2.5,2.5,52,0.00,,---,0.00,VWS V14.01,2013-04-10 09:41:00,
2013-04-10 02:46:00,46.4,29.8,30.12,South,180,2.5,2.5,52,0.00,,---,0.00,VWS V14.01,2013-04-10 09:46:00,
2013-04-10 02:51:00,46.4,29.8,30.12,South,180,2.5,2.5,52,0.00,,---,0.00,VWS V14.01,2013-04-10 09:51:00,
2013-04-10 02:56:00,46.4,29.8,30.12,South,180,2.5,2.5,52,0.00,,---,0.00,VWS V14.01,2013-04-10 09:56:00,
2013-04-10 03:01:00,46.4,29.3,30.12,South,180,2.5,2.5,51,0.00,,---,0.00,VWS V14.01,2013-04-10 10:01:00,
2013-04-10 03:07:00,46.4,29.3,30.12,South,180,2.5,2.5,51,0.00,,---,0.00,VWS V14.01,2013-04-10 10:07:00,
2013-04-10 03:12:00,46.6,29.4,30.12,South,180,2.5,2.5,51,0.00,,---,0.00,VWS V14.01,2013-04-10 10:12:00,
2013-04-10 03:17:00,46.6,29.4,30.12,South,180,2.5,2.5,51,0.00,,---,0.00,VWS V14.01,2013-04-10 10:17:00,
2013-04-10 03:22:00,46.6,29.4,30.12,South,180,2.5,2.5,51,0.00,,---,0.00,VWS V14.01,2013-04-10 10:22:00,
2013-04-10 03:27:00,46.6,29.0,30.12,South,180,2.5,2.5,50,0.00,,---,0.00,VWS V14.01,2013-04-10 10:27:00,
2013-04-10 03:32:00,46.8,29.1,30.12,South,180,2.5,2.5,50,0.00,,---,0.00,VWS V14.01,2013-04-10 10:32:00,
2013-04-10 03:37:00,46.8,29.6,30.12,South,180,2.5,2.5,51,0.00,,---,0.00,VWS V14.01,2013-04-10 10:37:00,
2013-04-10 03:42:00,46.6,29.9,30.12,South,180,2.5,2.5,52,0.00,,---,0.00,VWS V14.01,2013-04-10 10:42:00,
2013-04-10 03:47:00,46.8,29.6,30.12,South,180,2.5,2.5,51,0.00,,---,0.00,VWS V14.01,2013-04-10 10:47:00,
2013-04-10 03:52:00,46.8,29.6,30.12,South,180,2.5,2.5,51,0.00,,---,0.00,VWS V14.01,2013-04-10 10:52:00,
2013-04-10 03:57:00,46.8,29.6,30.12,South,180,2.5,2.5,51,0.00,,---,0.00,VWS V14.01,2013-04-10 10:57:00,
2013-04-10 04:10:00,46.8,29.6,30.12,South,180,2.5,2.5,51,0.00,,---,0.00,VWS V14.01,2013-04-10 11:10:00,
2013-04-10 04:15:00,46.8,29.6,30.12,South,180,2.5,2.5,51,0.00,,---,0.00,VWS V14.01,2013-04-10 11:15:00,
2013-04-10 04:23:00,46.8,29.6,30.09,South,180,2.5,2.5,51,0.00,,---,0.00,VWS V14.01,2013-04-10 11:23:00,
2013-04-10 04:28:00,46.8,29.6,30.09,South,180,2.5,2.5,51,0.00,,---,0.00,VWS V14.01,2013-04-10 11:28:00,
2013-04-10 04:33:00,46.8,29.1,30.09,South,180,2.5,2.5,50,0.00,,---,0.00,VWS V14.01,2013-04-10 11:33:00,
2013-04-10 04:38:00,46.8,29.1,30.06,South,180,2.5,2.5,50,0.00,,---,0.00,VWS V14.01,2013-04-10 11:38:00,
2013-04-10 04:43:00,46.8,29.1,30.06,South,180,2.5,2.5,50,0.00,,---,0.00,VWS V14.01,2013-04-10 11:43:00,
2013-04-10 04:48:00,46.8,29.1,30.06,South,180,2.5,2.5,50,0.00,,---,0.00,VWS V14.01,2013-04-10 11:48:00,
2013-04-10 04:54:00,46.9,29.3,30.06,South,180,2.5,2.5,50,0.00,,---,0.00,VWS V14.01,2013-04-10 11:54:00,
2013-04-10 04:59:00,47.3,29.6,30.06,South,180,2.5,2.5,50,0.00,,---,0.00,VWS V14.01,2013-04-10 11:59:00,
2013-04-10 05:04:00,47.5,29.3,30.06,South,180,2.5,2.5,49,0.00,,---,0.00,VWS V14.01,2013-04-10 12:04:00,
2013-04-10 05:09:00,47.8,29.1,30.03,South,180,2.5,2.5,48,0.00,,---,0.00,VWS V14.01,2013-04-10 12:09:00,
2013-04-10 05:14:00,47.8,29.1,30.03,South,180,2.5,2.5,48,0.00,,---,0.00,VWS V14.01,2013-04-10 12:14:00,
2013-04-10 05:19:00,48.0,28.8,30.03,South,180,2.5,2.5,47,0.00,,---,0.00,VWS V14.01,2013-04-10 12:19:00,
2013-04-10 05:24:00,48.0,28.8,30.06,South,180,2.5,2.5,47,0.00,,---,0.00,VWS V14.01,2013-04-10 12:24:00,
2013-04-10 05:29:00,48.2,28.4,30.06,South,180,2.5,2.5,46,0.00,,---,0.00,VWS V14.01,2013-04-10 12:29:00,
2013-04-10 05:34:00,48.0,28.8,30.06,South,180,2.5,2.5,47,0.00,,---,0.00,VWS V14.01,2013-04-10 12:34:00,
2013-04-10 05:39:00,48.0,28.8,30.06,South,180,2.5,2.5,47,0.00,,---,0.00,VWS V14.01,2013-04-10 12:39:00,
2013-04-10 05:44:00,48.0,28.8,30.06,South,180,6.3,6.3,47,0.00,,---,0.00,VWS V14.01,2013-04-10 12:44:00,
2013-04-10 05:49:00,47.8,28.6,30.06,South,180,8.7,8.7,47,0.00,,---,0.00,VWS V14.01,2013-04-10 12:49:00,
2013-04-10 05:54:00,48.0,28.2,30.03,SE,135,10.3,10.3,46,0.00,,---,0.00,VWS V14.01,2013-04-10 12:54:00,
2013-04-10 05:59:00,48.0,28.2,30.03,South,180,13.2,13.2,46,0.00,,---,0.00,VWS V14.01,2013-04-10 12:59:00,
2013-04-10 06:04:00,48.2,28.4,30.03,South,180,4.0,4.0,46,0.00,,---,0.00,VWS V14.01,2013-04-10 13:04:00,
2013-04-10 06:10:00,48.2,28.4,30.06,SW,225,3.1,3.1,46,0.00,,---,0.00,VWS V14.01,2013-04-10 13:10:00,
2013-04-10 06:15:00,48.2,27.9,30.06,SSE,158,5.8,5.8,45,0.00,,---,0.00,VWS V14.01,2013-04-10 13:15:00,
2013-04-10 06:20:00,48.2,27.9,30.06,SW,225,4.3,4.3,45,0.00,,---,0.00,VWS V14.01,2013-04-10 13:20:00,
2013-04-10 06:25:00,48.2,27.9,30.06,South,180,3.1,3.1,45,0.00,,---,0.00,VWS V14.01,2013-04-10 13:25:00,
2013-04-10 06:30:00,48.2,27.9,30.06,SE,135,6.0,6.0,45,0.00,,---,0.00,VWS V14.01,2013-04-10 13:30:00,
2013-04-10 06:35:00,48.4,28.0,30.06,SSE,158,2.9,2.9,45,0.00,,---,0.00,VWS V14.01,2013-04-10 13:35:00,
2013-04-10 06:40:00,48.4,28.0,30.03,East,90,0.0,0.0,45,0.00,,---,0.00,VWS V14.01,2013-04-10 13:40:00,
2013-04-10 06:45:00,48.4,27.5,30.03,ESE,112,6.5,6.5,44,0.00,,---,0.00,VWS V14.01,2013-04-10 13:45:00,
2013-04-10 06:50:00,48.6,27.6,30.03,SSW,202,5.8,5.8,44,0.00,,---,0.00,VWS V14.01,2013-04-10 13:50:00,
2013-04-10 06:55:00,48.6,28.2,30.03,NNW,338,0.0,0.0,45,0.00,,---,0.00,VWS V14.01,2013-04-10 13:55:00,
2013-04-10 07:00:00,48.4,28.0,30.03,NE,45,2.5,2.5,45,0.00,,---,0.00,VWS V14.01,2013-04-10 14:00:00,
2013-04-10 07:05:00,48.4,28.0,30.03,ENE,68,1.3,1.3,45,0.00,,---,0.00,VWS V14.01,2013-04-10 14:05:00,
2013-04-10 07:10:00,48.4,28.6,30.00,East,90,0.0,0.0,46,0.00,,---,0.00,VWS V14.01,2013-04-10 14:10:00,
2013-04-10 07:15:00,48.2,28.4,30.00,East,90,1.6,1.6,46,0.00,,---,0.00,VWS V14.01,2013-04-10 14:15:00,
2013-04-10 07:20:00,48.2,28.4,30.00,North,0,2.0,2.0,46,0.00,,---,0.00,VWS V14.01,2013-04-10 14:20:00,
2013-04-10 07:26:00,48.2,28.4,30.00,NNE,22,2.0,2.0,46,0.00,,---,0.00,VWS V14.01,2013-04-10 14:26:00,
2013-04-10 07:31:00,48.4,29.1,30.00,SSE,158,0.0,0.0,47,0.00,,---,0.00,VWS V14.01,2013-04-10 14:31:00,
2013-04-10 07:36:00,48.4,29.1,30.00,SSE,158,1.1,1.1,47,0.00,,---,0.00,VWS V14.01,2013-04-10 14:36:00,
2013-04-10 07:42:00,48.7,29.4,30.00,ENE,68,0.0,0.0,47,0.00,,---,0.00,VWS V14.01,2013-04-10 14:42:00,
2013-04-10 07:47:00,48.9,29.1,30.00,East,90,2.9,2.9,46,0.00,,---,0.00,VWS V14.01,2013-04-10 14:47:00,
2013-04-10 07:52:00,49.3,29.4,30.03,West,270,6.5,6.5,46,0.00,,---,0.00,VWS V14.01,2013-04-10 14:52:00,
2013-04-10 07:57:00,49.8,28.2,30.03,North,0,1.6,1.6,43,0.00,,---,0.00,VWS V14.01,2013-04-10 14:57:00,
2013-04-10 08:02:00,50.2,29.1,30.03,SW,225,1.3,1.3,44,0.00,,---,0.00,VWS V14.01,2013-04-10 15:02:00,
2013-04-10 08:07:00,50.5,29.5,30.00,WSW,248,0.0,0.0,44,0.00,,---,0.00,VWS V14.01,2013-04-10 15:07:00,
2013-04-10 08:12:00,50.5,28.3,30.00,SE,135,2.0,2.0,42,0.00,,---,0.00,VWS V14.01,2013-04-10 15:12:00,
2013-04-10 08:17:00,50.7,28.5,30.00,SE,135,0.9,0.9,42,0.00,,---,0.00,VWS V14.01,2013-04-10 15:17:00,
2013-04-10 08:22:00,51.3,29.0,29.97,ESE,112,3.1,3.1,42,0.00,,---,0.00,VWS V14.01,2013-04-10 15:22:00,
2013-04-10 08:27:00,51.1,28.8,29.97,SW,225,2.7,2.7,42,0.00,,---,0.00,VWS V14.01,2013-04-10 15:27:00,
2013-04-10 08:32:00,51.3,29.0,29.97,ESE,112,5.4,5.4,42,0.00,,---,0.00,VWS V14.01,2013-04-10 15:32:00,
2013-04-10 08:37:00,51.4,29.1,29.97,SE,135,0.0,0.0,42,0.00,,---,0.00,VWS V14.01,2013-04-10 15:37:00,
2013-04-10 08:42:00,51.4,28.5,29.97,NNE,22,1.6,1.6,41,0.00,,---,0.00,VWS V14.01,2013-04-10 15:42:00,
2013-04-10 08:47:00,51.6,28.7,29.97,North,0,3.6,3.6,41,0.00,,---,0.00,VWS V14.01,2013-04-10 15:47:00,
2013-04-10 08:53:00,51.8,28.9,29.97,SE,135,3.1,3.1,41,0.00,,---,0.00,VWS V14.01,2013-04-10 15:53:00,
2013-04-10 08:58:00,51.6,28.7,29.97,NW,315,0.0,0.0,41,0.00,,---,0.00,VWS V14.01,2013-04-10 15:58:00,
2013-04-10 09:03:00,52.2,29.2,29.97,SW,225,0.0,0.0,41,0.00,,---,0.00,VWS V14.01,2013-04-10 16:03:00,
2013-04-10 09:08:00,52.0,29.0,29.94,West,270,3.4,3.4,41,0.00,,---,0.00,VWS V14.01,2013-04-10 16:08:00,
2013-04-10 09:13:00,52.0,28.4,29.94,WNW,292,9.8,9.8,40,0.00,,---,0.00,VWS V14.01,2013-04-10 16:13:00,
2013-04-10 09:18:00,52.2,29.2,29.94,NNW,338,3.6,3.6,41,0.00,,---,0.00,VWS V14.01,2013-04-10 16:18:00,
2013-04-10 09:23:00,52.2,29.2,29.94,WNW,292,0.9,0.9,41,0.00,,---,0.00,VWS V14.01,2013-04-10 16:23:00,
2013-04-10 09:28:00,52.5,29.5,29.94,WSW,248,4.3,4.3,41,0.00,,---,0.00,VWS V14.01,2013-04-10 16:28:00,
2013-04-10 09:33:00,52.3,29.4,29.94,South,180,3.8,3.8,41,0.00,,---,0.00,VWS V14.01,2013-04-10 16:33:00,
2013-04-10 09:38:00,52.3,30.0,29.94,SE,135,14.3,14.3,42,0.00,,---,0.00,VWS V14.01,2013-04-10 16:38:00,
2013-04-10 09:43:00,52.5,30.1,29.94,SSE,158,6.5,6.5,42,0.00,,---,0.00,VWS V14.01,2013-04-10 16:43:00,
2013-04-10 09:48:00,52.7,30.3,29.94,West,270,6.5,6.5,42,0.00,,---,0.00,VWS V14.01,2013-04-10 16:48:00,
2013-04-10 09:54:00,53.6,31.1,29.91,North,0,1.6,1.6,42,0.00,,---,0.00,VWS V14.01,2013-04-10 16:54:00,
2013-04-10 09:59:00,55.0,31.8,29.91,NNE,22,3.1,3.1,41,0.00,,---,0.00,VWS V14.01,2013-04-10 16:59:00,
2013-04-10 10:04:00,55.4,31.5,29.91,WNW,292,1.6,1.6,40,0.00,,---,0.00,VWS V14.01,2013-04-10 17:04:00,
2013-04-10 10:09:00,55.2,31.3,29.91,NNW,338,2.2,2.2,40,0.00,,---,0.00,VWS V14.01,2013-04-10 17:09:00,
2013-04-10 10:14:00,54.5,30.7,29.91,SE,135,12.1,12.1,40,0.00,,---,0.00,VWS V14.01,2013-04-10 17:14:00,
2013-04-10 10:19:00,54.3,31.1,29.91,South,180,0.0,0.0,41,0.00,,---,0.00,VWS V14.01,2013-04-10 17:19:00,
2013-04-10 10:24:00,54.5,31.9,29.88,WNW,292,4.7,4.7,42,0.00,,---,0.00,VWS V14.01,2013-04-10 17:24:00,
2013-04-10 10:29:00,54.1,31.6,29.88,SW,225,0.0,0.0,42,0.00,,---,0.00,VWS V14.01,2013-04-10 17:29:00,
2013-04-10 10:34:00,54.1,32.2,29.88,South,180,2.0,2.0,43,0.00,,---,0.00,VWS V14.01,2013-04-10 17:34:00,
2013-04-10 10:39:00,54.1,32.7,29.88,SSW,202,5.6,5.6,44,0.00,,---,0.00,VWS V14.01,2013-04-10 17:39:00,
2013-04-10 10:44:00,54.5,33.6,29.88,NNW,338,2.0,2.0,45,0.00,,---,0.00,VWS V14.01,2013-04-10 17:44:00,
2013-04-10 10:49:00,55.6,34.0,29.88,WSW,248,12.3,12.3,44,0.00,,---,0.00,VWS V14.01,2013-04-10 17:49:00,
2013-04-10 10:54:00,55.4,33.3,29.88,SSW,202,4.9,4.9,43,0.00,,---,0.00,VWS V14.01,2013-04-10 17:54:00,
2013-04-10 10:59:00,55.9,34.4,29.88,SSE,158,4.3,4.3,44,0.00,,---,0.00,VWS V14.01,2013-04-10 17:59:00,
2013-04-10 11:04:00,56.1,34.5,29.88,SW,225,7.6,7.6,44,0.00,,---,0.00,VWS V14.01,2013-04-10 18:04:00,
2013-04-10 11:09:00,55.6,33.5,29.88,SSW,202,2.9,2.9,43,0.00,,---,0.00,VWS V14.01,2013-04-10 18:09:00,
2013-04-10 11:15:00,55.2,33.7,29.88,South,180,9.0,9.0,44,0.00,,---,0.00,VWS V14.01,2013-04-10 18:15:00,
2013-04-10 11:20:00,54.9,34.5,29.88,WSW,248,2.5,2.5,46,0.00,,---,0.00,VWS V14.01,2013-04-10 18:20:00,
2013-04-10 11:25:00,54.9,33.9,29.88,South,180,2.7,2.7,45,0.00,,---,0.00,VWS V14.01,2013-04-10 18:25:00,
2013-04-10 11:30:00,55.6,34.6,29.88,SSE,158,8.5,8.5,45,0.00,,---,0.00,VWS V14.01,2013-04-10 18:30:00,
2013-04-10 11:35:00,55.6,34.6,29.88,SSW,202,6.3,6.3,45,0.00,,---,0.00,VWS V14.01,2013-04-10 18:35:00,
2013-04-10 11:40:00,55.0,34.1,29.85,SSW,202,6.3,6.3,45,0.00,,---,0.00,VWS V14.01,2013-04-10 18:40:00,
2013-04-10 11:45:00,55.2,34.8,29.85,WSW,248,4.9,4.9,46,0.00,,---,0.00,VWS V14.01,2013-04-10 18:45:00,
2013-04-10 11:50:00,55.0,34.7,29.85,SSE,158,4.7,4.7,46,0.00,,---,0.00,VWS V14.01,2013-04-10 18:50:00,
2013-04-10 11:55:00,54.5,34.2,29.88,South,180,7.8,7.8,46,0.00,,---,0.00,VWS V14.01,2013-04-10 18:55:00,
2013-04-10 12:00:00,54.1,34.4,29.88,WSW,248,8.5,8.5,47,0.00,,---,0.00,VWS V14.01,2013-04-10 19:00:00,
2013-04-10 12:05:00,54.1,34.4,29.88,WSW,248,9.8,9.8,47,0.00,,---,0.00,VWS V14.01,2013-04-10 19:05:00,
2013-04-10 12:10:00,54.1,34.4,29.85,WSW,248,9.8,9.8,47,0.00,,---,0.00,VWS V14.01,2013-04-10 19:10:00,
2013-04-10 12:15:00,54.1,34.4,29.85,SSW,202,0.0,0.0,47,0.00,,---,0.00,VWS V14.01,2013-04-10 19:15:00,
2013-04-10 12:21:00,55.2,35.4,29.85,SW,225,7.4,7.4,47,0.00,,---,0.00,VWS V14.01,2013-04-10 19:21:00,
2013-04-10 12:26:00,55.6,35.2,29.82,SE,135,4.3,4.3,46,0.00,,---,0.00,VWS V14.01,2013-04-10 19:26:00,
2013-04-10 12:31:00,55.9,34.9,29.82,SW,225,12.8,12.8,45,0.00,,---,0.00,VWS V14.01,2013-04-10 19:31:00,
2013-04-10 12:36:00,56.1,35.6,29.82,South,180,1.6,1.6,46,0.00,,---,0.00,VWS V14.01,2013-04-10 19:36:00,
2013-04-10 12:41:00,56.3,35.8,29.82,South,180,8.7,8.7,46,0.00,,---,0.00,VWS V14.01,2013-04-10 19:41:00,
2013-04-10 12:46:00,56.1,36.2,29.82,SW,225,6.0,6.0,47,0.00,,---,0.00,VWS V14.01,2013-04-10 19:46:00,
2013-04-10 12:51:00,55.2,35.9,29.82,SE,135,4.9,4.9,48,0.00,,---,0.00,VWS V14.01,2013-04-10 19:51:00,
2013-04-10 12:56:00,55.0,36.8,29.82,South,180,4.3,4.3,50,0.00,,---,0.00,VWS V14.01,2013-04-10 19:56:00,
2013-04-10 13:02:00,53.8,37.1,29.82,SW,225,3.1,3.1,53,0.00,,---,0.00,VWS V14.01,2013-04-10 20:02:00,
2013-04-10 13:07:00,53.1,38.7,29.79,SW,225,6.9,6.9,58,0.00,,---,0.00,VWS V14.01,2013-04-10 20:07:00,
2013-04-10 13:12:00,52.2,39.5,29.79,South,180,5.6,5.6,62,0.00,,---,0.00,VWS V14.01,2013-04-10 20:12:00,
2013-04-10 13:17:00,51.6,40.2,29.79,SW,225,2.2,2.2,65,0.00,,---,0.00,VWS V14.01,2013-04-10 20:17:00,
2013-04-10 13:22:00,51.1,41.3,29.82,WSW,248,1.6,1.6,69,0.00,,---,0.00,VWS V14.01,2013-04-10 20:22:00,
2013-04-10 13:27:00,50.9,41.8,29.82,SW,225,6.3,6.3,71,0.04,,---,0.04,VWS V14.01,2013-04-10 20:27:00,
2013-04-10 13:32:00,50.5,42.2,29.82,West,270,1.6,1.6,73,0.04,,---,0.04,VWS V14.01,2013-04-10 20:32:00,
2013-04-10 13:38:00,50.4,42.8,29.82,SSW,202,1.1,1.1,75,0.04,,---,0.04,VWS V14.01,2013-04-10 20:38:00,
2013-04-10 13:43:00,50.5,43.6,29.82,SW,225,1.6,1.6,77,0.04,,---,0.04,VWS V14.01,2013-04-10 20:43:00,
2013-04-10 13:48:00,50.5,43.6,29.82,WSW,248,3.8,3.8,77,0.04,,---,0.04,VWS V14.01,2013-04-10 20:48:00,
2013-04-10 13:53:00,51.1,45.1,29.79,SW,225,2.7,2.7,80,0.04,,---,0.04,VWS V14.01,2013-04-10 20:53:00,
2013-04-10 13:58:00,51.3,45.3,29.79,WSW,248,3.8,3.8,80,0.04,,---,0.00,VWS V14.01,2013-04-10 20:58:00,
2013-04-10 14:03:00,51.6,45.7,29.79,NW,315,3.8,3.8,80,0.04,,---,0.04,VWS V14.01,2013-04-10 21:03:00,
2013-04-10 14:08:00,51.6,45.7,29.76,West,270,7.6,7.6,80,0.04,,---,0.04,VWS V14.01,2013-04-10 21:08:00,
2013-04-10 14:13:00,51.8,45.5,29.76,SW,225,7.8,7.8,79,0.04,,---,0.04,VWS V14.01,2013-04-10 21:13:00,
2013-04-10 14:18:00,52.2,45.2,29.76,SW,225,1.3,1.3,77,0.04,,---,0.04,VWS V14.01,2013-04-10 21:18:00,
2013-04-10 14:23:00,52.5,44.8,29.76,SSW,202,2.5,2.5,75,0.04,,---,0.04,VWS V14.01,2013-04-10 21:23:00,
2013-04-10 14:28:00,52.7,45.0,29.76,SW,225,7.4,7.4,75,0.00,,---,0.04,VWS V14.01,2013-04-10 21:28:00,
2013-04-10 14:34:00,53.1,45.0,29.76,SW,225,5.8,5.8,74,0.00,,---,0.04,VWS V14.01,2013-04-10 21:34:00,
2013-04-10 14:39:00,54.0,45.2,29.76,WSW,248,6.9,6.9,72,0.00,,---,0.04,VWS V14.01,2013-04-10 21:39:00,
2013-04-10 14:44:00,55.0,45.1,29.76,SW,225,8.1,8.1,69,0.00,,---,0.04,VWS V14.01,2013-04-10 21:44:00,
2013-04-10 14:49:00,56.1,44.9,29.76,WSW,248,12.3,12.3,66,0.00,,---,0.04,VWS V14.01,2013-04-10 21:49:00,
2013-04-10 14:54:00,56.3,43.9,29.76,SW,225,12.5,12.5,63,0.00,,---,0.04,VWS V14.01,2013-04-10 21:54:00,
2013-04-10 14:59:00,57.0,44.1,29.76,West,270,6.5,6.5,62,0.00,,---,0.04,VWS V14.01,2013-04-10 21:59:00,
2013-04-10 15:04:00,58.8,44.5,29.76,NW,315,6.3,6.3,59,0.00,,---,0.04,VWS V14.01,2013-04-10 22:04:00,
2013-04-10 15:09:00,59.4,44.6,29.76,SSW,202,7.8,7.8,58,0.00,,---,0.04,VWS V14.01,2013-04-10 22:09:00,
2013-04-10 15:14:00,58.8,43.2,29.76,WSW,248,4.0,4.0,56,0.00,,---,0.04,VWS V14.01,2013-04-10 22:14:00,
2013-04-10 15:19:00,58.1,43.0,29.76,WSW,248,3.8,3.8,57,0.00,,---,0.04,VWS V14.01,2013-04-10 22:19:00,
2013-04-10 15:24:00,58.1,44.3,29.76,WSW,248,2.7,2.7,60,0.00,,---,0.04,VWS V14.01,2013-04-10 22:24:00,
2013-04-10 15:29:00,58.5,43.8,29.76,WSW,248,8.5,8.5,58,0.00,,---,0.04,VWS V14.01,2013-04-10 22:29:00,
2013-04-10 15:34:00,59.4,42.7,29.76,WSW,248,4.0,4.0,54,0.00,,---,0.04,VWS V14.01,2013-04-10 22:34:00,
2013-04-10 15:40:00,59.2,41.6,29.76,SW,225,4.7,4.7,52,0.04,,---,0.08,VWS V14.01,2013-04-10 22:40:00,
2013-04-10 15:45:00,58.8,41.7,29.76,WNW,292,4.3,4.3,53,0.04,,---,0.08,VWS V14.01,2013-04-10 22:45:00,
2013-04-10 15:50:00,59.4,38.6,29.76,West,270,10.1,10.1,46,0.04,,---,0.08,VWS V14.01,2013-04-10 22:50:00,
2013-04-10 15:55:00,60.3,39.4,29.74,NW,315,8.7,8.7,46,0.04,,---,0.08,VWS V14.01,2013-04-10 22:55:00,
2013-04-10 16:00:00,60.4,38.4,29.74,West,270,13.2,13.2,44,0.04,,---,0.08,VWS V14.01,2013-04-10 23:00:00,
2013-04-10 16:05:00,60.4,36.0,29.74,West,270,5.4,5.4,40,0.04,,---,0.08,VWS V14.01,2013-04-10 23:05:00,
2013-04-10 16:10:00,61.2,34.7,29.74,WSW,248,9.8,9.8,37,0.04,,---,0.08,VWS V14.01,2013-04-10 23:10:00,
2013-04-10 16:15:00,61.7,33.8,29.74,WNW,292,12.8,12.8,35,0.04,,---,0.08,VWS V14.01,2013-04-10 23:15:00,
2013-04-10 16:20:00,61.9,34.0,29.74,WSW,248,10.3,10.3,35,0.04,,---,0.08,VWS V14.01,2013-04-10 23:20:00,
2013-04-10 16:25:00,61.9,34.0,29.74,WSW,248,23.3,23.3,35,0.04,,---,0.08,VWS V14.01,2013-04-10 23:25:00,
2013-04-10 16:30:00,62.1,34.1,29.74,West,270,10.1,10.1,35,0.04,,---,0.08,VWS V14.01,2013-04-10 23:30:00,
2013-04-10 16:35:00,62.1,33.4,29.74,WSW,248,5.6,5.6,34,0.04,,---,0.08,VWS V14.01,2013-04-10 23:35:00,
2013-04-10 16:40:00,62.2,33.5,29.76,West,270,6.5,6.5,34,0.00,,---,0.08,VWS V14.01,2013-04-10 23:40:00,
2013-04-10 16:45:00,61.7,33.1,29.76,WSW,248,10.3,10.3,34,0.00,,---,0.08,VWS V14.01,2013-04-10 23:45:00,
2013-04-10 16:50:00,61.3,32.8,29.76,WSW,248,6.3,6.3,34,0.00,,---,0.08,VWS V14.01,2013-04-10 23:50:00,
2013-04-10 16:55:00,61.2,32.6,29.76,WSW,248,10.1,10.1,34,0.00,,---,0.08,VWS V14.01,2013-04-10 23:55:00,
2013-04-10 17:01:00,61.9,33.2,29.76,WNW,292,6.5,6.5,34,0.00,,---,0.08,VWS V14.01,2013-04-11 00:01:00,
2013-04-10 17:06:00,61.7,33.1,29.76,WNW,292,10.3,10.3,34,0.00,,---,0.08,VWS V14.01,2013-04-11 00:06:00,
2013-04-10 17:11:00,62.2,33.5,29.76,NNW,338,7.6,7.6,34,0.00,,---,0.08,VWS V14.01,2013-04-11 00:11:00,
2013-04-10 17:16:00,62.1,33.4,29.76,WSW,248,11.0,11.0,34,0.00,,---,0.08,VWS V14.01,2013-04-11 00:16:00,
2013-04-10 17:21:00,62.2,33.5,29.76,West,270,10.7,10.7,34,0.00,,---,0.08,VWS V14.01,2013-04-11 00:21:00,
2013-04-10 17:26:00,61.3,32.8,29.76,WSW,248,17.7,17.7,34,0.00,,---,0.08,VWS V14.01,2013-04-11 00:26:00,
2013-04-10 17:31:00,60.6,32.1,29.76,WSW,248,4.9,4.9,34,0.00,,---,0.08,VWS V14.01,2013-04-11 00:31:00,
2013-04-10 17:36:00,60.3,31.8,29.74,WSW,248,20.1,20.1,34,0.00,,---,0.08,VWS V14.01,2013-04-11 00:36:00,
2013-04-10 17:41:00,59.7,30.6,29.74,WSW,248,19.5,19.5,33,0.00,,---,0.08,VWS V14.01,2013-04-11 00:41:00,
2013-04-10 17:47:00,59.4,30.3,29.74,WSW,248,17.5,17.5,33,0.00,,---,0.08,VWS V14.01,2013-04-11 00:47:00,
2013-04-10 17:52:00,59.0,30.0,29.76,WNW,292,10.7,10.7,33,0.00,,---,0.08,VWS V14.01,2013-04-11 00:52:00,
2013-04-10 17:57:00,59.0,30.7,29.76,SW,225,3.8,3.8,34,0.00,,---,0.08,VWS V14.01,2013-04-11 00:57:00,
2013-04-10 18:02:00,58.6,31.1,29.76,WSW,248,12.3,12.3,35,0.00,,---,0.08,VWS V14.01,2013-04-11 01:02:00,
2013-04-10 18:07:00,58.5,30.9,29.79,West,270,8.5,8.5,35,0.00,,---,0.08,VWS V14.01,2013-04-11 01:07:00,
2013-04-10 18:12:00,59.2,30.9,29.79,WNW,292,10.7,10.7,34,0.00,,---,0.08,VWS V14.01,2013-04-11 01:12:00,
2013-04-10 18:17:00,59.7,31.3,29.79,WSW,248,19.2,19.2,34,0.00,,---,0.08,VWS V14.01,2013-04-11 01:17:00,
2013-04-10 18:22:00,59.2,30.9,29.79,WSW,248,15.2,15.2,34,0.00,,---,0.00,VWS V14.01,2013-04-11 01:22:00,
2013-04-10 18:27:00,58.3,30.8,29.79,WNW,292,15.2,15.2,35,0.00,,---,0.08,VWS V14.01,2013-04-11 01:27:00,
2013-04-10 18:32:00,58.1,30.6,29.79,WSW,248,14.8,14.8,35,0.00,,---,0.08,VWS V14.01,2013-04-11 01:32:00,
2013-04-10 18:37:00,57.9,30.5,29.82,NW,315,10.5,10.5,35,0.00,,---,0.08,VWS V14.01,2013-04-11 01:37:00,
2013-04-10 18:42:00,57.7,30.3,29.82,WNW,292,7.2,7.2,35,0.00,,---,0.08,VWS V14.01,2013-04-11 01:42:00,
2013-04-10 18:47:00,57.9,30.5,29.82,WSW,248,7.6,7.6,35,0.00,,---,0.08,VWS V14.01,2013-04-11 01:47:00,
2013-04-10 18:53:00,57.7,30.3,29.82,WNW,292,17.0,17.0,35,0.00,,---,0.08,VWS V14.01,2013-04-11 01:53:00,
2013-04-10 18:58:00,57.4,30.0,29.82,WSW,248,8.7,8.7,35,0.00,,---,0.08,VWS V14.01,2013-04-11 01:58:00,
2013-04-10 19:03:00,57.2,29.8,29.82,WNW,292,12.8,12.8,35,0.00,,---,0.08,VWS V14.01,2013-04-11 02:03:00,
2013-04-10 19:08:00,57.0,29.7,29.82,WNW,292,5.4,5.4,35,0.00,,---,0.08,VWS V14.01,2013-04-11 02:08:00,
2013-04-10 19:13:00,56.8,29.5,29.82,NW,315,9.2,9.2,35,0.00,,---,0.08,VWS V14.01,2013-04-11 02:13:00,
2013-04-10 19:18:00,56.7,29.3,29.82,WNW,292,4.9,4.9,35,0.00,,---,0.08,VWS V14.01,2013-04-11 02:18:00,
2013-04-10 19:23:00,56.5,29.2,29.85,West,270,8.5,8.5,35,0.00,,---,0.08,VWS V14.01,2013-04-11 02:23:00,
2013-04-10 19:28:00,56.1,30.9,29.85,NW,315,4.5,4.5,38,0.00,,---,0.08,VWS V14.01,2013-04-11 02:28:00,
2013-04-10 19:33:00,55.2,32.0,29.85,NNW,338,0.0,0.0,41,0.00,,---,0.08,VWS V14.01,2013-04-11 02:33:00,
2013-04-10 19:38:00,54.3,32.9,29.85,SW,225,0.0,0.0,44,0.00,,---,0.08,VWS V14.01,2013-04-11 02:38:00,
2013-04-10 19:43:00,54.0,32.6,29.85,WNW,292,0.0,0.0,44,0.00,,---,0.08,VWS V14.01,2013-04-11 02:43:00,
2013-04-10 19:48:00,53.8,33.5,29.85,SW,225,3.8,3.8,46,0.00,,---,0.08,VWS V14.01,2013-04-11 02:48:00,
2013-04-10 19:53:00,53.4,33.2,29.85,SW,225,5.4,5.4,46,0.00,,---,0.08,VWS V14.01,2013-04-11 02:53:00,
2013-04-10 19:59:00,53.4,32.6,29.85,NW,315,2.7,2.7,45,0.00,,---,0.08,VWS V14.01,2013-04-11 02:59:00,
2013-04-10 20:04:00,53.2,32.5,29.85,West,270,0.0,0.0,45,0.00,,---,0.08,VWS V14.01,2013-04-11 03:04:00,
2013-04-10 20:09:00,52.9,32.1,29.85,WNW,292,0.0,0.0,45,0.00,,---,0.08,VWS V14.01,2013-04-11 03:09:00,
2013-04-10 20:14:00,52.7,32.0,29.85,West,270,0.0,0.0,45,0.00,,---,0.08,VWS V14.01,2013-04-11 03:14:00,
2013-04-10 20:19:00,52.2,32.0,29.85,SW,225,0.0,0.0,46,0.00,,---,0.08,VWS V14.01,2013-04-11 03:19:00,
2013-04-10 20:24:00,51.6,31.5,29.85,SW,225,3.1,3.1,46,0.00,,---,0.08,VWS V14.01,2013-04-11 03:24:00,
2013-04-10 20:29:00,51.4,30.8,29.85,WNW,292,3.4,3.4,45,0.00,,---,0.08,VWS V14.01,2013-04-11 03:29:00,
2013-04-10 20:34:00,51.1,30.5,29.85,WNW,292,5.4,5.4,45,0.00,,---,0.08,VWS V14.01,2013-04-11 03:34:00,
2013-04-10 20:39:00,51.4,29.7,29.85,SW,225,3.4,3.4,43,0.00,,---,0.08,VWS V14.01,2013-04-11 03:39:00,
2013-04-10 20:44:00,51.4,29.1,29.85,West,270,3.6,3.6,42,0.00,,---,0.08,VWS V14.01,2013-04-11 03:44:00,
2013-04-10 20:49:00,51.3,29.0,29.85,SW,225,1.1,1.1,42,0.00,,---,0.08,VWS V14.01,2013-04-11 03:49:00,
2013-04-10 20:54:00,51.3,28.4,29.88,WSW,248,6.3,6.3,41,0.00,,---,0.08,VWS V14.01,2013-04-11 03:54:00,
2013-04-10 20:59:00,51.1,28.2,29.88,WSW,248,3.4,3.4,41,0.00,,---,0.08,VWS V14.01,2013-04-11 03:59:00,
2013-04-10 21:00:00,51.1,28.2,29.88,SW,225,3.6,3.6,41,0.00,,---,0.08,VWS V14.01,2013-04-11 04:00:00,
2013-04-10 21:03:00,50.9,28.1,29.88,WSW,248,0.0,0.0,41,0.00,,---,0.08,VWS V14.01,2013-04-11 04:03:00,
2013-04-10 21:08:00,50.7,27.9,29.88,West,270,2.2,2.2,41,0.00,,---,0.08,VWS V14.01,2013-04-11 04:08:00,
2013-04-10 21:13:00,50.5,27.7,29.88,West,270,4.9,4.9,41,0.00,,---,0.08,VWS V14.01,2013-04-11 04:13:00,
2013-04-10 21:18:00,50.4,27.6,29.88,SW,225,2.5,2.5,41,0.00,,---,0.08,VWS V14.01,2013-04-11 04:18:00,
2013-04-10 21:23:00,50.2,27.4,29.88,West,270,3.6,3.6,41,0.00,,---,0.08,VWS V14.01,2013-04-11 04:23:00,
2013-04-10 21:29:00,50.0,27.2,29.88,SW,225,6.0,6.0,41,0.00,,---,0.08,VWS V14.01,2013-04-11 04:29:00,
2013-04-10 21:34:00,49.8,27.7,29.88,WSW,248,4.7,4.7,42,0.00,,---,0.08,VWS V14.01,2013-04-11 04:34:00,
2013-04-10 21:39:00,49.6,27.5,29.85,SW,225,4.3,4.3,42,0.00,,---,0.08,VWS V14.01,2013-04-11 04:39:00,
2013-04-10 21:44:00,49.5,27.3,29.85,WSW,248,2.7,2.7,42,0.00,,---,0.08,VWS V14.01,2013-04-11 04:44:00,
2013-04-10 21:49:00,49.5,27.3,29.85,WSW,248,5.6,5.6,42,0.00,,---,0.08,VWS V14.01,2013-04-11 04:49:00,
2013-04-10 21:54:00,49.6,27.5,29.91,West,270,8.1,8.1,42,0.00,,---,0.08,VWS V14.01,2013-04-11 04:54:00,
2013-04-10 21:59:00,49.5,27.3,29.91,WSW,248,2.5,2.5,42,0.00,,---,0.08,VWS V14.01,2013-04-11 04:59:00,
2013-04-10 22:04:00,49.1,27.0,29.91,West,270,4.3,4.3,42,0.00,,---,0.08,VWS V14.01,2013-04-11 05:04:00,
2013-04-10 22:09:00,48.7,27.3,29.91,WSW,248,3.8,3.8,43,0.00,,---,0.08,VWS V14.01,2013-04-11 05:09:00,
2013-04-10 22:14:00,48.6,27.1,29.91,WSW,248,2.5,2.5,43,0.00,,---,0.08,VWS V14.01,2013-04-11 05:14:00,
2013-04-10 22:19:00,48.2,26.8,29.91,WSW,248,4.0,4.0,43,0.00,,---,0.08,VWS V14.01,2013-04-11 05:19:00,
2013-04-10 22:24:00,47.8,27.0,29.94,West,270,3.8,3.8,44,0.00,,---,0.08,VWS V14.01,2013-04-11 05:24:00,
2013-04-10 22:29:00,47.7,27.4,29.94,WSW,248,4.7,4.7,45,0.00,,---,0.08,VWS V14.01,2013-04-11 05:29:00,
2013-04-10 22:34:00,47.3,27.6,29.94,WSW,248,2.0,2.0,46,0.00,,---,0.08,VWS V14.01,2013-04-11 05:34:00,
2013-04-10 22:39:00,47.1,27.4,29.94,SW,225,4.7,4.7,46,0.00,,---,0.08,VWS V14.01,2013-04-11 05:39:00,
2013-04-10 22:45:00,46.9,27.8,29.94,NW,315,4.3,4.3,47,0.00,,---,0.08,VWS V14.01,2013-04-11 05:45:00,
2013-04-10 22:50:00,46.8,27.6,29.94,WSW,248,7.6,7.6,47,0.00,,---,0.08,VWS V14.01,2013-04-11 05:50:00,
2013-04-10 22:55:00,46.8,27.6,29.94,WSW,248,8.7,8.7,47,0.00,,---,0.08,VWS V14.01,2013-04-11 05:55:00,
2013-04-10 23:00:00,46.8,27.6,29.94,WSW,248,3.6,3.6,47,0.00,,---,0.08,VWS V14.01,2013-04-11 06:00:00,
2013-04-10 23:05:00,46.6,27.5,29.94,WSW,248,7.6,7.6,47,0.00,,---,0.08,VWS V14.01,2013-04-11 06:05:00,
2013-04-10 23:10:00,46.4,27.3,29.94,WSW,248,3.1,3.1,47,0.00,,---,0.08,VWS V14.01,2013-04-11 06:10:00,
2013-04-10 23:15:00,46.4,27.3,29.94,WSW,248,7.4,7.4,47,0.00,,---,0.08,VWS V14.01,2013-04-11 06:15:00,
2013-04-10 23:20:00,46.2,27.6,29.94,WSW,248,6.3,6.3,48,0.00,,---,0.08,VWS V14.01,2013-04-11 06:20:00,
2013-04-10 23:25:00,46.2,27.6,29.94,WSW,248,3.8,3.8,48,0.00,,---,0.08,VWS V14.01,2013-04-11 06:25:00,
2013-04-10 23:30:00,46.0,27.5,29.94,WSW,248,4.0,4.0,48,0.00,,---,0.08,VWS V14.01,2013-04-11 06:30:00,
2013-04-10 23:35:00,46.0,27.5,29.94,WNW,292,0.9,0.9,48,0.00,,---,0.08,VWS V14.01,2013-04-11 06:35:00,
2013-04-10 23:40:00,45.9,27.3,29.94,WSW,248,2.0,2.0,48,0.00,,---,0.08,VWS V14.01,2013-04-11 06:40:00,
2013-04-10 23:45:00,45.9,27.3,29.94,West,270,2.7,2.7,48,0.00,,---,0.08,VWS V14.01,2013-04-11 06:45:00,
2013-04-10 23:50:00,45.7,27.1,29.94,WNW,292,2.0,2.0,48,0.00,,---,0.08,VWS V14.01,2013-04-11 06:50:00,
2013-04-10 23:55:00,45.0,26.5,29.94,WNW,292,0.0,0.0,48,0.00,,---,0.08,VWS V14.01,2013-04-11 06:55:00,